sensor_id;sensor_type;location;lat;lon;timestamp;P1;durP1;ratioP1;P2;durP2;ratioP2
16029;SDS011;34770;49.272;11.070;2023-10-13T00:01:57;14.43;;;9.93;;
16029;SDS011;34770;49.272;11.070;2023-10-13T00:04:26;13.32;;;10.07;;
16029;SDS011;34770;49.272;11.070;2023-10-13T00:06:52;13.68;;;9.85;;
16029;SDS011;34770;49.272;11.070;2023-10-13T00:09:18;15.82;;;10.43;;
16029;SDS011;34770;49.272;11.070;2023-10-13T00:11:49;13.65;;;11.02;;
16029;SDS011;34770;49.272;11.070;2023-10-13T00:14:14;17.52;;;10.68;;
16029;SDS011;34770;49.272;11.070;2023-10-13T00:16:42;12.85;;;9.75;;
16029;SDS011;34770;49.272;11.070;2023-10-13T00:19:08;14.00;;;10.23;;
16029;SDS011;34770;49.272;11.070;2023-10-13T00:21:38;13.93;;;10.20;;
16029;SDS011;34770;49.272;11.070;2023-10-13T00:24:03;15.48;;;10.15;;
16029;SDS011;34770;49.272;11.070;2023-10-13T00:26:37;14.07;;;10.93;;
16029;SDS011;34770;49.272;11.070;2023-10-13T00:29:03;15.48;;;10.20;;
16029;SDS011;34770;49.272;11.070;2023-10-13T00:31:31;12.85;;;10.50;;
16029;SDS011;34770;49.272;11.070;2023-10-13T00:34:01;12.82;;;10.30;;
16029;SDS011;34770;49.272;11.070;2023-10-13T00:36:36;12.43;;;10.30;;
16029;SDS011;34770;49.272;11.070;2023-10-13T00:39:01;16.33;;;10.98;;
16029;SDS011;34770;49.272;11.070;2023-10-13T00:41:29;14.38;;;10.27;;
16029;SDS011;34770;49.272;11.070;2023-10-13T00:44:13;17.90;;;10.60;;
16029;SDS011;34770;49.272;11.070;2023-10-13T00:46:41;13.13;;;10.23;;
16029;SDS011;34770;49.272;11.070;2023-10-13T00:49:09;14.88;;;11.15;;
16029;SDS011;34770;49.272;11.070;2023-10-13T00:51:40;16.35;;;10.63;;
16029;SDS011;34770;49.272;11.070;2023-10-13T00:54:12;17.48;;;11.48;;
16029;SDS011;34770;49.272;11.070;2023-10-13T00:56:39;15.85;;;11.32;;
16029;SDS011;34770;49.272;11.070;2023-10-13T00:59:28;18.77;;;11.05;;
16029;SDS011;34770;49.272;11.070;2023-10-13T01:01:53;17.65;;;11.23;;
16029;SDS011;34770;49.272;11.070;2023-10-13T01:04:20;15.93;;;10.80;;
16029;SDS011;34770;49.272;11.070;2023-10-13T01:06:48;23.50;;;12.05;;
16029;SDS011;34770;49.272;11.070;2023-10-13T01:09:13;14.32;;;9.90;;
16029;SDS011;34770;49.272;11.070;2023-10-13T01:11:51;15.07;;;10.57;;
16029;SDS011;34770;49.272;11.070;2023-10-13T01:14:18;14.90;;;10.55;;
16029;SDS011;34770;49.272;11.070;2023-10-13T01:16:46;16.23;;;10.93;;
16029;SDS011;34770;49.272;11.070;2023-10-13T01:19:17;15.52;;;9.13;;
16029;SDS011;34770;49.272;11.070;2023-10-13T01:21:44;13.30;;;10.00;;
16029;SDS011;34770;49.272;11.070;2023-10-13T01:24:10;12.00;;;9.65;;
16029;SDS011;34770;49.272;11.070;2023-10-13T01:26:38;12.85;;;9.93;;
16029;SDS011;34770;49.272;11.070;2023-10-13T01:29:06;12.02;;;9.18;;
16029;SDS011;34770;49.272;11.070;2023-10-13T01:31:43;11.65;;;9.48;;
16029;SDS011;34770;49.272;11.070;2023-10-13T01:34:13;13.55;;;9.07;;
16029;SDS011;34770;49.272;11.070;2023-10-13T01:39:16;11.77;;;9.32;;
16029;SDS011;34770;49.272;11.070;2023-10-13T01:41:42;14.73;;;8.75;;
16029;SDS011;34770;49.272;11.070;2023-10-13T01:44:10;13.32;;;8.85;;
16029;SDS011;34770;49.272;11.070;2023-10-13T01:46:42;12.68;;;8.43;;
16029;SDS011;34770;49.272;11.070;2023-10-13T01:49:07;13.40;;;9.25;;
16029;SDS011;34770;49.272;11.070;2023-10-13T01:51:33;15.52;;;9.13;;
16029;SDS011;34770;49.272;11.070;2023-10-13T01:53:59;12.57;;;9.02;;
16029;SDS011;34770;49.272;11.070;2023-10-13T01:56:28;11.27;;;9.00;;
16029;SDS011;34770;49.272;11.070;2023-10-13T01:58:56;11.60;;;9.45;;
16029;SDS011;34770;49.272;11.070;2023-10-13T02:01:22;13.95;;;9.15;;
16029;SDS011;34770;49.272;11.070;2023-10-13T02:03:57;12.23;;;9.00;;
16029;SDS011;34770;49.272;11.070;2023-10-13T02:06:32;13.65;;;8.18;;
16029;SDS011;34770;49.272;11.070;2023-10-13T02:09:04;11.00;;;9.65;;
16029;SDS011;34770;49.272;11.070;2023-10-13T02:11:50;13.25;;;9.88;;
16029;SDS011;34770;49.272;11.070;2023-10-13T02:14:20;18.70;;;9.85;;
16029;SDS011;34770;49.272;11.070;2023-10-13T02:16:50;15.15;;;8.65;;
16029;SDS011;34770;49.272;11.070;2023-10-13T02:19:37;12.90;;;8.98;;
16029;SDS011;34770;49.272;11.070;2023-10-13T02:22:05;11.30;;;8.23;;
16029;SDS011;34770;49.272;11.070;2023-10-13T02:24:34;13.70;;;8.18;;
16029;SDS011;34770;49.272;11.070;2023-10-13T02:27:04;15.23;;;9.15;;
16029;SDS011;34770;49.272;11.070;2023-10-13T02:29:42;12.93;;;8.80;;
16029;SDS011;34770;49.272;11.070;2023-10-13T02:32:10;10.80;;;8.80;;
16029;SDS011;34770;49.272;11.070;2023-10-13T02:34:47;12.65;;;8.68;;
16029;SDS011;34770;49.272;11.070;2023-10-13T02:37:12;16.05;;;8.38;;
16029;SDS011;34770;49.272;11.070;2023-10-13T02:39:38;10.63;;;8.43;;
16029;SDS011;34770;49.272;11.070;2023-10-13T02:42:08;15.73;;;8.85;;
16029;SDS011;34770;49.272;11.070;2023-10-13T02:44:48;13.60;;;8.45;;
16029;SDS011;34770;49.272;11.070;2023-10-13T02:47:14;13.77;;;9.85;;
16029;SDS011;34770;49.272;11.070;2023-10-13T02:49:39;11.25;;;9.00;;
16029;SDS011;34770;49.272;11.070;2023-10-13T02:52:08;12.48;;;8.93;;
16029;SDS011;34770;49.272;11.070;2023-10-13T02:54:36;16.58;;;9.63;;
16029;SDS011;34770;49.272;11.070;2023-10-13T02:57:11;11.10;;;9.07;;
16029;SDS011;34770;49.272;11.070;2023-10-13T02:59:37;15.10;;;8.73;;
16029;SDS011;34770;49.272;11.070;2023-10-13T03:02:08;18.00;;;9.18;;
16029;SDS011;34770;49.272;11.070;2023-10-13T03:04:49;14.75;;;9.20;;
16029;SDS011;34770;49.272;11.070;2023-10-13T03:07:38;17.45;;;9.45;;
16029;SDS011;34770;49.272;11.070;2023-10-13T03:10:08;16.77;;;10.23;;
16029;SDS011;34770;49.272;11.070;2023-10-13T03:12:37;12.98;;;8.68;;
16029;SDS011;34770;49.272;11.070;2023-10-13T03:15:04;16.45;;;9.90;;
16029;SDS011;34770;49.272;11.070;2023-10-13T03:17:40;16.17;;;9.90;;
16029;SDS011;34770;49.272;11.070;2023-10-13T03:20:13;12.88;;;8.82;;
16029;SDS011;34770;49.272;11.070;2023-10-13T03:22:41;13.35;;;8.77;;
16029;SDS011;34770;49.272;11.070;2023-10-13T03:25:10;10.95;;;9.27;;
16029;SDS011;34770;49.272;11.070;2023-10-13T03:27:43;16.52;;;9.98;;
16029;SDS011;34770;49.272;11.070;2023-10-13T03:30:17;14.13;;;9.57;;
16029;SDS011;34770;49.272;11.070;2023-10-13T03:32:44;16.70;;;9.77;;
16029;SDS011;34770;49.272;11.070;2023-10-13T03:35:18;10.88;;;8.80;;
16029;SDS011;34770;49.272;11.070;2023-10-13T03:37:52;14.20;;;8.88;;
16029;SDS011;34770;49.272;11.070;2023-10-13T03:40:18;10.02;;;8.32;;
16029;SDS011;34770;49.272;11.070;2023-10-13T03:42:45;11.98;;;8.85;;
16029;SDS011;34770;49.272;11.070;2023-10-13T03:45:25;10.77;;;8.93;;
16029;SDS011;34770;49.272;11.070;2023-10-13T03:47:51;13.07;;;7.32;;
16029;SDS011;34770;49.272;11.070;2023-10-13T03:50:18;12.27;;;8.82;;
16029;SDS011;34770;49.272;11.070;2023-10-13T03:52:57;12.95;;;9.02;;
16029;SDS011;34770;49.272;11.070;2023-10-13T03:55:26;12.55;;;8.38;;
16029;SDS011;34770;49.272;11.070;2023-10-13T03:57:55;9.73;;;8.13;;
16029;SDS011;34770;49.272;11.070;2023-10-13T04:00:24;14.45;;;9.77;;
16029;SDS011;34770;49.272;11.070;2023-10-13T04:02:50;10.98;;;8.75;;
16029;SDS011;34770;49.272;11.070;2023-10-13T04:05:34;14.98;;;9.73;;
16029;SDS011;34770;49.272;11.070;2023-10-13T04:08:04;10.55;;;7.82;;
16029;SDS011;34770;49.272;11.070;2023-10-13T04:10:48;11.50;;;7.85;;
16029;SDS011;34770;49.272;11.070;2023-10-13T04:13:17;14.43;;;9.02;;
16029;SDS011;34770;49.272;11.070;2023-10-13T04:16:01;9.50;;;8.07;;
16029;SDS011;34770;49.272;11.070;2023-10-13T04:18:49;10.57;;;9.13;;
16029;SDS011;34770;49.272;11.070;2023-10-13T04:21:24;13.13;;;7.90;;
16029;SDS011;34770;49.272;11.070;2023-10-13T04:26:47;13.02;;;8.38;;
16029;SDS011;34770;49.272;11.070;2023-10-13T04:29:32;12.45;;;8.68;;
16029;SDS011;34770;49.272;11.070;2023-10-13T04:32:13;12.48;;;8.32;;
16029;SDS011;34770;49.272;11.070;2023-10-13T04:34:45;20.10;;;9.23;;
16029;SDS011;34770;49.272;11.070;2023-10-13T04:37:16;12.68;;;8.80;;
16029;SDS011;34770;49.272;11.070;2023-10-13T04:39:54;16.90;;;10.35;;
16029;SDS011;34770;49.272;11.070;2023-10-13T04:42:24;10.05;;;8.25;;
16029;SDS011;34770;49.272;11.070;2023-10-13T04:45:05;11.05;;;8.90;;
16029;SDS011;34770;49.272;11.070;2023-10-13T04:47:52;13.75;;;8.82;;
16029;SDS011;34770;49.272;11.070;2023-10-13T04:50:22;11.77;;;8.77;;
16029;SDS011;34770;49.272;11.070;2023-10-13T04:52:52;13.93;;;8.93;;
16029;SDS011;34770;49.272;11.070;2023-10-13T04:55:26;11.63;;;9.55;;
16029;SDS011;34770;49.272;11.070;2023-10-13T04:58:13;12.95;;;9.60;;
16029;SDS011;34770;49.272;11.070;2023-10-13T05:01:04;10.55;;;8.18;;
16029;SDS011;34770;49.272;11.070;2023-10-13T05:04:08;8.90;;;7.63;;
16029;SDS011;34770;49.272;11.070;2023-10-13T05:06:47;11.30;;;8.18;;
16029;SDS011;34770;49.272;11.070;2023-10-13T05:09:31;12.93;;;8.43;;
16029;SDS011;34770;49.272;11.070;2023-10-13T05:12:14;11.50;;;8.88;;
16029;SDS011;34770;49.272;11.070;2023-10-13T05:14:58;11.32;;;7.93;;
16029;SDS011;34770;49.272;11.070;2023-10-13T05:17:56;15.75;;;8.43;;
16029;SDS011;34770;49.272;11.070;2023-10-13T05:20:40;15.40;;;8.57;;
16029;SDS011;34770;49.272;11.070;2023-10-13T05:23:24;10.40;;;8.57;;
16029;SDS011;34770;49.272;11.070;2023-10-13T05:26:08;10.18;;;8.25;;
16029;SDS011;34770;49.272;11.070;2023-10-13T05:28:52;12.23;;;7.80;;
16029;SDS011;34770;49.272;11.070;2023-10-13T05:31:35;8.80;;;7.25;;
16029;SDS011;34770;49.272;11.070;2023-10-13T05:34:19;9.00;;;7.50;;
16029;SDS011;34770;49.272;11.070;2023-10-13T05:37:03;10.23;;;7.35;;
16029;SDS011;34770;49.272;11.070;2023-10-13T05:39:47;11.20;;;7.03;;
16029;SDS011;34770;49.272;11.070;2023-10-13T05:42:31;12.18;;;7.63;;
16029;SDS011;34770;49.272;11.070;2023-10-13T05:45:15;8.60;;;7.25;;
16029;SDS011;34770;49.272;11.070;2023-10-13T05:47:43;8.43;;;7.40;;
16029;SDS011;34770;49.272;11.070;2023-10-13T05:50:11;9.18;;;7.20;;
16029;SDS011;34770;49.272;11.070;2023-10-13T05:53:46;9.80;;;7.00;;
16029;SDS011;34770;49.272;11.070;2023-10-13T06:10:33;10.65;;;7.63;;
16029;SDS011;34770;49.272;11.070;2023-10-13T06:13:17;11.95;;;8.30;;
16029;SDS011;34770;49.272;11.070;2023-10-13T06:16:05;15.50;;;7.30;;
16029;SDS011;34770;49.272;11.070;2023-10-13T06:18:50;10.38;;;7.18;;
16029;SDS011;34770;49.272;11.070;2023-10-13T06:21:34;10.20;;;7.68;;
16029;SDS011;34770;49.272;11.070;2023-10-13T06:24:18;10.48;;;7.22;;
16029;SDS011;34770;49.272;11.070;2023-10-13T06:27:02;11.20;;;8.23;;
16029;SDS011;34770;49.272;11.070;2023-10-13T06:29:46;14.13;;;7.38;;
16029;SDS011;34770;49.272;11.070;2023-10-13T06:32:12;10.13;;;7.15;;
16029;SDS011;34770;49.272;11.070;2023-10-13T06:34:38;12.10;;;7.03;;
16029;SDS011;34770;49.272;11.070;2023-10-13T06:37:10;8.43;;;7.50;;
16029;SDS011;34770;49.272;11.070;2023-10-13T06:39:54;10.57;;;7.80;;
16029;SDS011;34770;49.272;11.070;2023-10-13T06:42:31;13.30;;;7.80;;
16029;SDS011;34770;49.272;11.070;2023-10-13T06:45:17;16.98;;;7.63;;
16029;SDS011;34770;49.272;11.070;2023-10-13T06:48:16;15.98;;;8.40;;
16029;SDS011;34770;49.272;11.070;2023-10-13T07:03:33;9.77;;;6.85;;
16029;SDS011;34770;49.272;11.070;2023-10-13T07:06:29;10.77;;;7.43;;
16029;SDS011;34770;49.272;11.070;2023-10-13T07:08:59;12.90;;;7.68;;
16029;SDS011;34770;49.272;11.070;2023-10-13T07:11:41;10.05;;;7.07;;
16029;SDS011;34770;49.272;11.070;2023-10-13T07:15:13;11.52;;;7.60;;
16029;SDS011;34770;49.272;11.070;2023-10-13T07:18:19;10.10;;;7.38;;
16029;SDS011;34770;49.272;11.070;2023-10-13T07:21:38;14.85;;;7.97;;
16029;SDS011;34770;49.272;11.070;2023-10-13T07:24:52;17.63;;;8.65;;
16029;SDS011;34770;49.272;11.070;2023-10-13T07:27:29;10.18;;;6.82;;
16029;SDS011;34770;49.272;11.070;2023-10-13T07:31:04;16.00;;;6.60;;
16029;SDS011;34770;49.272;11.070;2023-10-13T07:33:37;19.15;;;8.43;;
16029;SDS011;34770;49.272;11.070;2023-10-13T07:36:15;8.18;;;6.47;;
16029;SDS011;34770;49.272;11.070;2023-10-13T07:39:41;11.93;;;8.18;;
16029;SDS011;34770;49.272;11.070;2023-10-13T07:42:07;12.38;;;6.32;;
16029;SDS011;34770;49.272;11.070;2023-10-13T07:44:58;13.20;;;7.07;;
16029;SDS011;34770;49.272;11.070;2023-10-13T07:47:24;8.77;;;6.10;;
16029;SDS011;34770;49.272;11.070;2023-10-13T07:49:52;12.55;;;6.15;;
16029;SDS011;34770;49.272;11.070;2023-10-13T07:52:54;10.35;;;6.95;;
16029;SDS011;34770;49.272;11.070;2023-10-13T07:55:47;12.82;;;6.07;;
16029;SDS011;34770;49.272;11.070;2023-10-13T07:58:24;9.40;;;6.47;;
16029;SDS011;34770;49.272;11.070;2023-10-13T08:00:53;10.32;;;6.38;;
16029;SDS011;34770;49.272;11.070;2023-10-13T08:04:00;14.02;;;6.95;;
16029;SDS011;34770;49.272;11.070;2023-10-13T08:07:15;8.30;;;5.68;;
16029;SDS011;34770;49.272;11.070;2023-10-13T08:10:06;12.38;;;5.50;;
16029;SDS011;34770;49.272;11.070;2023-10-13T08:12:42;9.77;;;5.57;;
16029;SDS011;34770;49.272;11.070;2023-10-13T08:15:09;12.02;;;5.68;;
16029;SDS011;34770;49.272;11.070;2023-10-13T08:18:10;12.32;;;4.95;;
16029;SDS011;34770;49.272;11.070;2023-10-13T08:21:05;7.25;;;4.65;;
16029;SDS011;34770;49.272;11.070;2023-10-13T08:23:50;9.57;;;4.40;;
16029;SDS011;34770;49.272;11.070;2023-10-13T08:26:37;10.00;;;4.45;;
16029;SDS011;34770;49.272;11.070;2023-10-13T08:29:30;9.43;;;4.28;;
16029;SDS011;34770;49.272;11.070;2023-10-13T08:31:56;9.80;;;4.60;;
16029;SDS011;34770;49.272;11.070;2023-10-13T08:34:40;8.30;;;4.68;;
16029;SDS011;34770;49.272;11.070;2023-10-13T08:37:08;13.77;;;4.72;;
16029;SDS011;34770;49.272;11.070;2023-10-13T08:39:49;13.70;;;4.88;;
16029;SDS011;34770;49.272;11.070;2023-10-13T08:42:34;10.18;;;4.40;;
16029;SDS011;34770;49.272;11.070;2023-10-13T08:45:14;8.75;;;4.35;;
16029;SDS011;34770;49.272;11.070;2023-10-13T08:47:59;10.57;;;4.63;;
16029;SDS011;34770;49.272;11.070;2023-10-13T08:50:50;11.40;;;4.95;;
16029;SDS011;34770;49.272;11.070;2023-10-13T08:53:17;7.47;;;4.40;;
16029;SDS011;34770;49.272;11.070;2023-10-13T08:55:56;9.85;;;4.47;;
16029;SDS011;34770;49.272;11.070;2023-10-13T08:58:27;7.97;;;4.38;;
16029;SDS011;34770;49.272;11.070;2023-10-13T09:01:13;12.52;;;5.07;;
16029;SDS011;34770;49.272;11.070;2023-10-13T09:03:40;8.55;;;4.57;;
16029;SDS011;34770;49.272;11.070;2023-10-13T09:06:08;12.27;;;5.05;;
16029;SDS011;34770;49.272;11.070;2023-10-13T09:08:39;9.57;;;4.45;;
16029;SDS011;34770;49.272;11.070;2023-10-13T09:11:25;9.13;;;4.45;;
16029;SDS011;34770;49.272;11.070;2023-10-13T09:13:52;8.65;;;4.05;;
16029;SDS011;34770;49.272;11.070;2023-10-13T09:16:17;10.02;;;4.70;;
16029;SDS011;34770;49.272;11.070;2023-10-13T09:19:06;8.30;;;3.97;;
16029;SDS011;34770;49.272;11.070;2023-10-13T09:21:38;10.60;;;4.18;;
16029;SDS011;34770;49.272;11.070;2023-10-13T09:24:10;8.20;;;3.83;;
16029;SDS011;34770;49.272;11.070;2023-10-13T09:26:46;6.00;;;3.63;;
16029;SDS011;34770;49.272;11.070;2023-10-13T09:29:17;10.98;;;4.25;;
16029;SDS011;34770;49.272;11.070;2023-10-13T09:31:44;10.05;;;4.22;;
16029;SDS011;34770;49.272;11.070;2023-10-13T09:34:20;10.93;;;4.60;;
16029;SDS011;34770;49.272;11.070;2023-10-13T09:36:54;6.93;;;3.85;;
16029;SDS011;34770;49.272;11.070;2023-10-13T09:39:25;4.35;;;3.33;;
16029;SDS011;34770;49.272;11.070;2023-10-13T09:42:06;6.28;;;3.28;;
16029;SDS011;34770;49.272;11.070;2023-10-13T09:44:35;7.70;;;3.60;;
16029;SDS011;34770;49.272;11.070;2023-10-13T09:47:02;5.75;;;4.38;;
16029;SDS011;34770;49.272;11.070;2023-10-13T09:49:35;7.75;;;4.03;;
16029;SDS011;34770;49.272;11.070;2023-10-13T09:52:14;8.25;;;3.90;;
16029;SDS011;34770;49.272;11.070;2023-10-13T09:54:50;7.15;;;3.65;;
16029;SDS011;34770;49.272;11.070;2023-10-13T09:57:25;6.20;;;3.67;;
16029;SDS011;34770;49.272;11.070;2023-10-13T10:00:12;5.78;;;3.25;;
16029;SDS011;34770;49.272;11.070;2023-10-13T10:03:12;13.20;;;3.58;;
16029;SDS011;34770;49.272;11.070;2023-10-13T10:05:57;7.78;;;3.20;;
16029;SDS011;34770;49.272;11.070;2023-10-13T10:08:39;6.63;;;3.28;;
16029;SDS011;34770;49.272;11.070;2023-10-13T10:11:23;7.85;;;3.83;;
16029;SDS011;34770;49.272;11.070;2023-10-13T10:16:47;9.48;;;3.47;;
16029;SDS011;34770;49.272;11.070;2023-10-13T10:19:16;9.73;;;3.80;;
16029;SDS011;34770;49.272;11.070;2023-10-13T10:21:43;6.07;;;3.30;;
16029;SDS011;34770;49.272;11.070;2023-10-13T10:24:15;5.18;;;2.83;;
16029;SDS011;34770;49.272;11.070;2023-10-13T10:27:04;12.02;;;4.30;;
16029;SDS011;34770;49.272;11.070;2023-10-13T10:29:30;11.60;;;3.60;;
16029;SDS011;34770;49.272;11.070;2023-10-13T10:31:57;9.63;;;3.20;;
16029;SDS011;34770;49.272;11.070;2023-10-13T10:34:29;8.77;;;3.75;;
16029;SDS011;34770;49.272;11.070;2023-10-13T10:36:57;6.82;;;3.30;;
16029;SDS011;34770;49.272;11.070;2023-10-13T10:39:33;6.10;;;3.53;;
16029;SDS011;34770;49.272;11.070;2023-10-13T10:42:10;11.27;;;3.70;;
16029;SDS011;34770;49.272;11.070;2023-10-13T10:44:51;7.93;;;2.70;;
16029;SDS011;34770;49.272;11.070;2023-10-13T10:47:31;6.82;;;3.33;;
16029;SDS011;34770;49.272;11.070;2023-10-13T10:49:58;10.75;;;3.70;;
16029;SDS011;34770;49.272;11.070;2023-10-13T10:52:25;12.30;;;3.80;;
16029;SDS011;34770;49.272;11.070;2023-10-13T10:55:01;4.07;;;2.65;;
16029;SDS011;34770;49.272;11.070;2023-10-13T10:57:31;6.75;;;3.00;;
16029;SDS011;34770;49.272;11.070;2023-10-13T11:00:02;11.90;;;3.30;;
16029;SDS011;34770;49.272;11.070;2023-10-13T11:02:36;8.35;;;3.13;;
16029;SDS011;34770;49.272;11.070;2023-10-13T11:05:02;9.25;;;3.55;;
16029;SDS011;34770;49.272;11.070;2023-10-13T11:07:31;5.50;;;2.80;;
16029;SDS011;34770;49.272;11.070;2023-10-13T11:09:56;5.35;;;3.13;;
16029;SDS011;34770;49.272;11.070;2023-10-13T11:12:36;8.32;;;3.80;;
16029;SDS011;34770;49.272;11.070;2023-10-13T11:15:05;5.80;;;3.17;;
16029;SDS011;34770;49.272;11.070;2023-10-13T11:18:00;5.22;;;2.65;;
16029;SDS011;34770;49.272;11.070;2023-10-13T11:20:25;8.60;;;3.15;;
16029;SDS011;34770;49.272;11.070;2023-10-13T11:22:51;11.80;;;3.42;;
16029;SDS011;34770;49.272;11.070;2023-10-13T11:25:24;7.32;;;3.88;;
16029;SDS011;34770;49.272;11.070;2023-10-13T11:27:55;8.85;;;3.00;;
16029;SDS011;34770;49.272;11.070;2023-10-13T11:30:21;8.80;;;3.20;;
16029;SDS011;34770;49.272;11.070;2023-10-13T11:35:26;6.25;;;2.75;;
16029;SDS011;34770;49.272;11.070;2023-10-13T11:38:11;8.18;;;3.05;;
16029;SDS011;34770;49.272;11.070;2023-10-13T11:40:39;8.93;;;3.03;;
16029;SDS011;34770;49.272;11.070;2023-10-13T11:43:23;8.13;;;2.95;;
16029;SDS011;34770;49.272;11.070;2023-10-13T11:45:49;10.13;;;3.22;;
16029;SDS011;34770;49.272;11.070;2023-10-13T11:48:38;5.72;;;2.47;;
16029;SDS011;34770;49.272;11.070;2023-10-13T11:51:07;6.22;;;3.03;;
16029;SDS011;34770;49.272;11.070;2023-10-13T11:53:51;8.05;;;3.10;;
16029;SDS011;34770;49.272;11.070;2023-10-13T11:56:17;7.40;;;3.00;;
16029;SDS011;34770;49.272;11.070;2023-10-13T11:58:46;7.60;;;3.22;;
16029;SDS011;34770;49.272;11.070;2023-10-13T12:01:11;8.20;;;2.95;;
16029;SDS011;34770;49.272;11.070;2023-10-13T12:03:42;7.20;;;2.78;;
16029;SDS011;34770;49.272;11.070;2023-10-13T12:06:28;9.98;;;3.00;;
16029;SDS011;34770;49.272;11.070;2023-10-13T12:09:20;6.20;;;2.42;;
16029;SDS011;34770;49.272;11.070;2023-10-13T12:11:46;9.07;;;2.97;;
16029;SDS011;34770;49.272;11.070;2023-10-13T12:14:15;10.95;;;3.25;;
16029;SDS011;34770;49.272;11.070;2023-10-13T12:16:52;7.65;;;3.40;;
16029;SDS011;34770;49.272;11.070;2023-10-13T12:19:24;7.22;;;3.00;;
16029;SDS011;34770;49.272;11.070;2023-10-13T12:21:51;7.22;;;2.45;;
16029;SDS011;34770;49.272;11.070;2023-10-13T12:24:24;10.73;;;2.80;;
16029;SDS011;34770;49.272;11.070;2023-10-13T12:27:01;8.23;;;2.55;;
16029;SDS011;34770;49.272;11.070;2023-10-13T12:29:27;5.72;;;3.03;;
16029;SDS011;34770;49.272;11.070;2023-10-13T12:31:57;12.05;;;2.63;;
16029;SDS011;34770;49.272;11.070;2023-10-13T12:34:33;9.70;;;2.95;;
16029;SDS011;34770;49.272;11.070;2023-10-13T12:37:18;6.72;;;3.00;;
16029;SDS011;34770;49.272;11.070;2023-10-13T12:40:04;7.28;;;2.80;;
16029;SDS011;34770;49.272;11.070;2023-10-13T12:42:49;5.93;;;3.00;;
16029;SDS011;34770;49.272;11.070;2023-10-13T12:45:43;7.80;;;2.70;;
16029;SDS011;34770;49.272;11.070;2023-10-13T12:48:29;9.52;;;2.78;;
16029;SDS011;34770;49.272;11.070;2023-10-13T12:51:13;7.32;;;2.55;;
16029;SDS011;34770;49.272;11.070;2023-10-13T12:53:46;7.40;;;2.88;;
16029;SDS011;34770;49.272;11.070;2023-10-13T12:56:19;7.63;;;2.83;;
16029;SDS011;34770;49.272;11.070;2023-10-13T12:58:53;6.07;;;2.53;;
16029;SDS011;34770;49.272;11.070;2023-10-13T13:01:23;5.00;;;2.80;;
16029;SDS011;34770;49.272;11.070;2023-10-13T13:03:52;5.25;;;2.67;;
16029;SDS011;34770;49.272;11.070;2023-10-13T13:06:25;7.53;;;3.08;;
16029;SDS011;34770;49.272;11.070;2023-10-13T13:11:16;7.55;;;2.90;;
16029;SDS011;34770;49.272;11.070;2023-10-13T13:13:41;7.55;;;2.50;;
16029;SDS011;34770;49.272;11.070;2023-10-13T13:16:07;4.97;;;2.40;;
16029;SDS011;34770;49.272;11.070;2023-10-13T13:18:33;10.32;;;2.80;;
16029;SDS011;34770;49.272;11.070;2023-10-13T13:20:59;5.03;;;2.80;;
16029;SDS011;34770;49.272;11.070;2023-10-13T13:23:25;9.80;;;3.08;;
16029;SDS011;34770;49.272;11.070;2023-10-13T13:25:51;9.23;;;2.97;;
16029;SDS011;34770;49.272;11.070;2023-10-13T13:28:17;5.18;;;2.72;;
16029;SDS011;34770;49.272;11.070;2023-10-13T13:30:43;5.65;;;2.72;;
16029;SDS011;34770;49.272;11.070;2023-10-13T13:33:09;8.48;;;2.60;;
16029;SDS011;34770;49.272;11.070;2023-10-13T13:35:40;4.05;;;2.55;;
16029;SDS011;34770;49.272;11.070;2023-10-13T13:38:08;9.20;;;2.75;;
16029;SDS011;34770;49.272;11.070;2023-10-13T13:41:03;14.25;;;2.80;;
16029;SDS011;34770;49.272;11.070;2023-10-13T13:43:34;7.18;;;2.97;;
16029;SDS011;34770;49.272;11.070;2023-10-13T13:46:03;8.85;;;2.38;;
16029;SDS011;34770;49.272;11.070;2023-10-13T13:48:34;6.95;;;2.22;;
16029;SDS011;34770;49.272;11.070;2023-10-13T13:51:07;15.20;;;3.22;;
16029;SDS011;34770;49.272;11.070;2023-10-13T13:53:51;8.98;;;2.70;;
16029;SDS011;34770;49.272;11.070;2023-10-13T13:56:18;7.45;;;2.85;;
16029;SDS011;34770;49.272;11.070;2023-10-13T14:01:09;5.65;;;2.88;;
16029;SDS011;34770;49.272;11.070;2023-10-13T14:03:40;9.88;;;2.75;;
16029;SDS011;34770;49.272;11.070;2023-10-13T14:08:43;7.38;;;2.72;;
16029;SDS011;34770;49.272;11.070;2023-10-13T14:11:22;3.85;;;2.22;;
16029;SDS011;34770;49.272;11.070;2023-10-13T14:14:03;8.25;;;2.30;;
16029;SDS011;34770;49.272;11.070;2023-10-13T14:16:53;5.13;;;2.42;;
16029;SDS011;34770;49.272;11.070;2023-10-13T14:19:27;6.82;;;2.50;;
16029;SDS011;34770;49.272;11.070;2023-10-13T14:21:53;5.85;;;2.45;;
16029;SDS011;34770;49.272;11.070;2023-10-13T14:24:19;9.63;;;2.75;;
16029;SDS011;34770;49.272;11.070;2023-10-13T14:26:55;7.07;;;2.38;;
16029;SDS011;34770;49.272;11.070;2023-10-13T14:29:32;4.22;;;2.20;;
16029;SDS011;34770;49.272;11.070;2023-10-13T14:31:57;7.75;;;2.78;;
16029;SDS011;34770;49.272;11.070;2023-10-13T14:34:24;6.95;;;2.47;;
16029;SDS011;34770;49.272;11.070;2023-10-13T14:36:51;4.60;;;2.53;;
16029;SDS011;34770;49.272;11.070;2023-10-13T14:39:19;4.93;;;2.50;;
16029;SDS011;34770;49.272;11.070;2023-10-13T14:41:46;8.25;;;2.30;;
16029;SDS011;34770;49.272;11.070;2023-10-13T14:44:12;5.70;;;2.85;;
16029;SDS011;34770;49.272;11.070;2023-10-13T14:46:38;7.80;;;2.28;;
16029;SDS011;34770;49.272;11.070;2023-10-13T14:49:04;7.72;;;2.72;;
16029;SDS011;34770;49.272;11.070;2023-10-13T14:51:30;3.85;;;2.33;;
16029;SDS011;34770;49.272;11.070;2023-10-13T14:53:56;13.07;;;3.40;;
16029;SDS011;34770;49.272;11.070;2023-10-13T14:56:24;8.57;;;2.70;;
16029;SDS011;34770;49.272;11.070;2023-10-13T14:58:51;8.23;;;3.13;;
16029;SDS011;34770;49.272;11.070;2023-10-13T15:01:19;6.50;;;2.65;;
16029;SDS011;34770;49.272;11.070;2023-10-13T15:03:46;8.05;;;2.90;;
16029;SDS011;34770;49.272;11.070;2023-10-13T15:06:19;5.13;;;2.50;;
16029;SDS011;34770;49.272;11.070;2023-10-13T15:08:49;5.88;;;2.33;;
16029;SDS011;34770;49.272;11.070;2023-10-13T15:11:15;5.97;;;2.35;;
16029;SDS011;34770;49.272;11.070;2023-10-13T15:13:43;7.22;;;2.20;;
16029;SDS011;34770;49.272;11.070;2023-10-13T15:16:15;9.73;;;3.00;;
16029;SDS011;34770;49.272;11.070;2023-10-13T15:18:43;8.77;;;2.50;;
16029;SDS011;34770;49.272;11.070;2023-10-13T15:21:24;8.07;;;4.15;;
16029;SDS011;34770;49.272;11.070;2023-10-13T15:24:16;8.05;;;2.55;;
16029;SDS011;34770;49.272;11.070;2023-10-13T15:26:47;9.40;;;3.00;;
16029;SDS011;34770;49.272;11.070;2023-10-13T15:29:13;7.28;;;3.60;;
16029;SDS011;34770;49.272;11.070;2023-10-13T15:31:42;8.05;;;2.95;;
16029;SDS011;34770;49.272;11.070;2023-10-13T15:34:29;6.22;;;3.08;;
16029;SDS011;34770;49.272;11.070;2023-10-13T15:36:55;4.90;;;2.97;;
16029;SDS011;34770;49.272;11.070;2023-10-13T15:39:22;10.88;;;2.47;;
16029;SDS011;34770;49.272;11.070;2023-10-13T15:41:56;9.70;;;2.72;;
16029;SDS011;34770;49.272;11.070;2023-10-13T15:44:24;7.53;;;2.60;;
16029;SDS011;34770;49.272;11.070;2023-10-13T15:46:53;10.75;;;3.42;;
16029;SDS011;34770;49.272;11.070;2023-10-13T15:49:20;6.25;;;2.97;;
16029;SDS011;34770;49.272;11.070;2023-10-13T15:51:46;8.48;;;3.00;;
16029;SDS011;34770;49.272;11.070;2023-10-13T15:54:11;4.65;;;2.50;;
16029;SDS011;34770;49.272;11.070;2023-10-13T15:56:46;5.68;;;2.40;;
16029;SDS011;34770;49.272;11.070;2023-10-13T15:59:13;5.05;;;2.70;;